Skip Navigation LinksHome page > Weather > Current weather Skip Navigation Links

Current Weather

Chicago O'Hare Intl, Chicago

For information only: do not use for flight planning or navigation.
Latest weather
Observation time Wednesday, March 29, 2017 1:51 AM CDT
Local time Wednesday, March 29, 2017 2:17 AM CDT
Flight conditions Low Instrument Meteorological Conditions
Winds
Wind direction Northeast (40°)
Wind speed 7 mph
Visibility 1 mi.
Present weather mist
Sky condition
Ceiling 200 ft. overcast
Cloud layer overcast 200 ft.
Temperature 36°F
Dewpoint 36°F
Altimeter 30.22 in.Hg
Derived measurements
Relative humidity 100%
Wind chill 30°F
Density altitude -1153 ft.
METAR KORD 290651Z 04006KT 1SM R10L/4000V6000FT BR OVC002 02/02 A3022

Settings

Location code

InnerDrive.Weather 4.0.6144.1 Release CLR 4.0.30319.34209
Copyright ©2015 Inner Drive Technology. All rights reserved. Portions Copyright ©1986-2015 David Braverman.

Find weather

Site navigation


Skip Navigation Links

Place info

Page info

PayPal - The safer, easier way to pay online!

Return home.

Copyright ©2017 Inner Drive Technology. Purveyors of fine, hand-crafted computer software. Page printed 2017-03-29T07:17:34 UTC.